sensor_id;sensor_type;location;lat;lon;timestamp;temperature;humidity
19088;DHT22;9676;50.916;13.352;2023-07-31T00:02:10;19.00;52.80
19088;DHT22;9676;50.916;13.352;2023-07-31T00:05:01;18.90;52.80
19088;DHT22;9676;50.916;13.352;2023-07-31T00:07:51;18.90;52.90
19088;DHT22;9676;50.916;13.352;2023-07-31T00:10:41;18.90;52.90
19088;DHT22;9676;50.916;13.352;2023-07-31T00:13:31;18.90;52.90
19088;DHT22;9676;50.916;13.352;2023-07-31T00:16:20;18.80;52.90
19088;DHT22;9676;50.916;13.352;2023-07-31T00:19:09;18.80;52.90
19088;DHT22;9676;50.916;13.352;2023-07-31T00:22:00;18.80;52.90
19088;DHT22;9676;50.916;13.352;2023-07-31T00:24:50;18.80;53.10
19088;DHT22;9676;50.916;13.352;2023-07-31T00:27:39;18.80;53.10
19088;DHT22;9676;50.916;13.352;2023-07-31T00:30:32;18.80;53.70
19088;DHT22;9676;50.916;13.352;2023-07-31T00:33:21;18.70;53.10
19088;DHT22;9676;50.916;13.352;2023-07-31T00:36:10;18.70;53.10
19088;DHT22;9676;50.916;13.352;2023-07-31T00:39:01;18.80;53.30
19088;DHT22;9676;50.916;13.352;2023-07-31T00:41:52;18.70;53.20
19088;DHT22;9676;50.916;13.352;2023-07-31T00:44:41;18.80;53.30
19088;DHT22;9676;50.916;13.352;2023-07-31T00:47:31;18.80;53.30
19088;DHT22;9676;50.916;13.352;2023-07-31T00:50:22;18.80;53.40
19088;DHT22;9676;50.916;13.352;2023-07-31T00:53:12;18.80;53.40
19088;DHT22;9676;50.916;13.352;2023-07-31T00:56:03;18.70;53.40
19088;DHT22;9676;50.916;13.352;2023-07-31T00:58:53;18.70;53.40
19088;DHT22;9676;50.916;13.352;2023-07-31T01:01:43;18.80;53.50
19088;DHT22;9676;50.916;13.352;2023-07-31T01:04:32;18.70;53.40
19088;DHT22;9676;50.916;13.352;2023-07-31T01:07:26;18.70;53.40
19088;DHT22;9676;50.916;13.352;2023-07-31T01:10:21;18.80;53.50
19088;DHT22;9676;50.916;13.352;2023-07-31T01:13:15;18.80;53.50
19088;DHT22;9676;50.916;13.352;2023-07-31T01:16:04;18.70;53.40
19088;DHT22;9676;50.916;13.352;2023-07-31T01:18:53;18.70;53.40
19088;DHT22;9676;50.916;13.352;2023-07-31T01:22:23;18.70;53.50
19088;DHT22;9676;50.916;13.352;2023-07-31T01:25:33;18.80;53.70
19088;DHT22;9676;50.916;13.352;2023-07-31T01:28:43;18.80;53.60
19088;DHT22;9676;50.916;13.352;2023-07-31T01:31:36;18.70;53.50
19088;DHT22;9676;50.916;13.352;2023-07-31T01:34:28;18.70;53.40
19088;DHT22;9676;50.916;13.352;2023-07-31T01:37:18;18.70;53.50
19088;DHT22;9676;50.916;13.352;2023-07-31T01:40:08;18.70;53.60
19088;DHT22;9676;50.916;13.352;2023-07-31T01:42:59;18.70;53.70
19088;DHT22;9676;50.916;13.352;2023-07-31T01:45:49;18.80;53.80
19088;DHT22;9676;50.916;13.352;2023-07-31T01:48:38;18.80;53.80
19088;DHT22;9676;50.916;13.352;2023-07-31T01:51:28;18.80;53.80
19088;DHT22;9676;50.916;13.352;2023-07-31T01:54:17;18.90;53.90
19088;DHT22;9676;50.916;13.352;2023-07-31T01:57:07;18.90;53.80
19088;DHT22;9676;50.916;13.352;2023-07-31T01:59:57;18.90;53.80
19088;DHT22;9676;50.916;13.352;2023-07-31T02:02:47;19.00;53.80
19088;DHT22;9676;50.916;13.352;2023-07-31T02:05:44;18.90;53.70
19088;DHT22;9676;50.916;13.352;2023-07-31T02:08:33;18.90;53.80
19088;DHT22;9676;50.916;13.352;2023-07-31T02:11:23;18.90;53.70
19088;DHT22;9676;50.916;13.352;2023-07-31T02:14:12;18.90;53.70
19088;DHT22;9676;50.916;13.352;2023-07-31T02:17:03;18.90;53.70
19088;DHT22;9676;50.916;13.352;2023-07-31T02:19:53;18.90;53.70
19088;DHT22;9676;50.916;13.352;2023-07-31T02:22:43;18.90;53.70
19088;DHT22;9676;50.916;13.352;2023-07-31T02:25:32;18.90;53.70
19088;DHT22;9676;50.916;13.352;2023-07-31T02:28:21;18.90;53.80
19088;DHT22;9676;50.916;13.352;2023-07-31T02:31:11;18.90;53.80
19088;DHT22;9676;50.916;13.352;2023-07-31T02:34:01;18.90;53.90
19088;DHT22;9676;50.916;13.352;2023-07-31T02:36:51;18.90;54.00
19088;DHT22;9676;50.916;13.352;2023-07-31T02:39:40;18.90;54.10
19088;DHT22;9676;50.916;13.352;2023-07-31T02:42:30;18.90;54.20
19088;DHT22;9676;50.916;13.352;2023-07-31T02:45:19;18.90;54.30
19088;DHT22;9676;50.916;13.352;2023-07-31T02:48:09;18.90;54.30
19088;DHT22;9676;50.916;13.352;2023-07-31T02:50:59;18.90;54.40
19088;DHT22;9676;50.916;13.352;2023-07-31T02:53:49;18.90;54.60
19088;DHT22;9676;50.916;13.352;2023-07-31T02:56:38;18.90;54.60
19088;DHT22;9676;50.916;13.352;2023-07-31T02:59:28;19.00;54.80
19088;DHT22;9676;50.916;13.352;2023-07-31T03:02:17;19.00;55.00
19088;DHT22;9676;50.916;13.352;2023-07-31T03:05:07;19.00;55.00
19088;DHT22;9676;50.916;13.352;2023-07-31T03:07:58;18.90;55.00
19088;DHT22;9676;50.916;13.352;2023-07-31T03:10:48;18.90;55.30
19088;DHT22;9676;50.916;13.352;2023-07-31T03:13:37;18.90;55.50
19088;DHT22;9676;50.916;13.352;2023-07-31T03:16:26;18.80;55.70
19088;DHT22;9676;50.916;13.352;2023-07-31T03:19:16;18.80;56.00
19088;DHT22;9676;50.916;13.352;2023-07-31T03:22:05;18.70;56.80
19088;DHT22;9676;50.916;13.352;2023-07-31T03:24:57;18.70;56.20
19088;DHT22;9676;50.916;13.352;2023-07-31T03:27:47;18.60;56.50
19088;DHT22;9676;50.916;13.352;2023-07-31T03:30:36;18.50;56.50
19088;DHT22;9676;50.916;13.352;2023-07-31T03:33:26;18.50;56.80
19088;DHT22;9676;50.916;13.352;2023-07-31T03:36:15;18.40;57.00
19088;DHT22;9676;50.916;13.352;2023-07-31T03:39:05;18.40;57.40
19088;DHT22;9676;50.916;13.352;2023-07-31T03:41:56;18.30;58.10
19088;DHT22;9676;50.916;13.352;2023-07-31T03:44:45;18.30;57.90
19088;DHT22;9676;50.916;13.352;2023-07-31T03:47:34;18.20;58.00
19088;DHT22;9676;50.916;13.352;2023-07-31T03:50:24;18.20;58.20
19088;DHT22;9676;50.916;13.352;2023-07-31T03:53:14;18.10;58.30
19088;DHT22;9676;50.916;13.352;2023-07-31T03:56:03;18.20;59.20
19088;DHT22;9676;50.916;13.352;2023-07-31T03:58:54;18.10;59.20
19088;DHT22;9676;50.916;13.352;2023-07-31T04:01:44;18.10;59.50
19088;DHT22;9676;50.916;13.352;2023-07-31T04:04:33;18.10;59.50
19088;DHT22;9676;50.916;13.352;2023-07-31T04:07:23;18.00;59.70
19088;DHT22;9676;50.916;13.352;2023-07-31T04:10:12;18.00;59.90
19088;DHT22;9676;50.916;13.352;2023-07-31T04:13:02;18.00;60.00
19088;DHT22;9676;50.916;13.352;2023-07-31T04:15:52;18.00;60.20
19088;DHT22;9676;50.916;13.352;2023-07-31T04:18:42;18.00;60.40
19088;DHT22;9676;50.916;13.352;2023-07-31T04:21:31;18.00;60.60
19088;DHT22;9676;50.916;13.352;2023-07-31T04:24:20;18.00;61.40
19088;DHT22;9676;50.916;13.352;2023-07-31T04:27:12;18.00;60.90
19088;DHT22;9676;50.916;13.352;2023-07-31T04:30:01;18.00;61.30
19088;DHT22;9676;50.916;13.352;2023-07-31T04:32:52;18.00;62.20
19088;DHT22;9676;50.916;13.352;2023-07-31T04:35:46;18.00;62.30
19088;DHT22;9676;50.916;13.352;2023-07-31T04:38:40;18.00;62.80
19088;DHT22;9676;50.916;13.352;2023-07-31T04:41:30;18.10;62.70
19088;DHT22;9676;50.916;13.352;2023-07-31T04:44:19;18.10;63.10
19088;DHT22;9676;50.916;13.352;2023-07-31T04:47:09;18.10;63.50
19088;DHT22;9676;50.916;13.352;2023-07-31T04:49:59;18.10;63.80
19088;DHT22;9676;50.916;13.352;2023-07-31T04:52:49;18.10;64.10
19088;DHT22;9676;50.916;13.352;2023-07-31T04:55:38;18.20;64.20
19088;DHT22;9676;50.916;13.352;2023-07-31T04:58:27;18.20;64.70
19088;DHT22;9676;50.916;13.352;2023-07-31T05:01:17;18.30;64.90
19088;DHT22;9676;50.916;13.352;2023-07-31T05:04:06;18.30;65.20
19088;DHT22;9676;50.916;13.352;2023-07-31T05:06:57;18.30;65.40
19088;DHT22;9676;50.916;13.352;2023-07-31T05:09:46;18.40;66.10
19088;DHT22;9676;50.916;13.352;2023-07-31T05:12:36;18.40;66.50
19088;DHT22;9676;50.916;13.352;2023-07-31T05:15:25;18.50;66.70
19088;DHT22;9676;50.916;13.352;2023-07-31T05:18:14;18.50;67.30
19088;DHT22;9676;50.916;13.352;2023-07-31T05:21:04;18.60;67.60
19088;DHT22;9676;50.916;13.352;2023-07-31T05:23:55;18.70;67.90
19088;DHT22;9676;50.916;13.352;2023-07-31T05:26:44;18.70;68.40
19088;DHT22;9676;50.916;13.352;2023-07-31T05:29:33;18.80;68.50
19088;DHT22;9676;50.916;13.352;2023-07-31T05:32:23;18.90;69.10
19088;DHT22;9676;50.916;13.352;2023-07-31T05:35:12;18.90;69.20
19088;DHT22;9676;50.916;13.352;2023-07-31T05:38:02;19.00;69.70
19088;DHT22;9676;50.916;13.352;2023-07-31T05:40:52;19.10;70.30
19088;DHT22;9676;50.916;13.352;2023-07-31T05:43:42;19.20;71.00
19088;DHT22;9676;50.916;13.352;2023-07-31T05:46:32;19.30;71.10
19088;DHT22;9676;50.916;13.352;2023-07-31T05:49:22;19.40;71.40
19088;DHT22;9676;50.916;13.352;2023-07-31T05:52:11;19.50;71.30
19088;DHT22;9676;50.916;13.352;2023-07-31T05:55:00;19.50;71.00
19088;DHT22;9676;50.916;13.352;2023-07-31T05:57:52;19.60;71.10
19088;DHT22;9676;50.916;13.352;2023-07-31T06:00:41;19.60;71.40
19088;DHT22;9676;50.916;13.352;2023-07-31T06:03:31;19.70;71.30
19088;DHT22;9676;50.916;13.352;2023-07-31T06:06:20;19.70;71.50
19088;DHT22;9676;50.916;13.352;2023-07-31T06:09:10;19.70;71.40
19088;DHT22;9676;50.916;13.352;2023-07-31T06:11:59;19.70;71.50
19088;DHT22;9676;50.916;13.352;2023-07-31T06:14:50;19.70;71.50
19088;DHT22;9676;50.916;13.352;2023-07-31T06:17:40;19.80;72.20
19088;DHT22;9676;50.916;13.352;2023-07-31T06:20:30;19.80;71.90
19088;DHT22;9676;50.916;13.352;2023-07-31T06:23:20;19.80;72.20
19088;DHT22;9676;50.916;13.352;2023-07-31T06:26:09;19.80;72.30
19088;DHT22;9676;50.916;13.352;2023-07-31T06:28:58;19.90;72.80
19088;DHT22;9676;50.916;13.352;2023-07-31T06:31:49;19.90;73.10
19088;DHT22;9676;50.916;13.352;2023-07-31T06:34:39;19.90;73.60
19088;DHT22;9676;50.916;13.352;2023-07-31T06:37:28;19.90;73.50
19088;DHT22;9676;50.916;13.352;2023-07-31T06:40:17;20.00;73.70
19088;DHT22;9676;50.916;13.352;2023-07-31T06:43:07;20.10;74.40
19088;DHT22;9676;50.916;13.352;2023-07-31T06:45:56;20.20;75.00
19088;DHT22;9676;50.916;13.352;2023-07-31T06:48:47;20.30;75.80
19088;DHT22;9676;50.916;13.352;2023-07-31T06:51:37;20.40;76.80
19088;DHT22;9676;50.916;13.352;2023-07-31T06:54:26;20.50;76.90
19088;DHT22;9676;50.916;13.352;2023-07-31T06:57:15;20.70;76.80
19088;DHT22;9676;50.916;13.352;2023-07-31T07:00:06;20.80;76.30
19088;DHT22;9676;50.916;13.352;2023-07-31T07:02:56;21.00;76.30
19088;DHT22;9676;50.916;13.352;2023-07-31T07:05:47;21.10;75.90
19088;DHT22;9676;50.916;13.352;2023-07-31T07:08:37;21.30;75.90
19088;DHT22;9676;50.916;13.352;2023-07-31T07:11:26;21.40;75.60
19088;DHT22;9676;50.916;13.352;2023-07-31T07:14:16;21.50;75.60
19088;DHT22;9676;50.916;13.352;2023-07-31T07:17:05;21.50;75.90
19088;DHT22;9676;50.916;13.352;2023-07-31T07:19:55;21.70;76.40
19088;DHT22;9676;50.916;13.352;2023-07-31T07:22:46;21.80;76.80
19088;DHT22;9676;50.916;13.352;2023-07-31T07:25:37;22.10;77.30
19088;DHT22;9676;50.916;13.352;2023-07-31T07:28:27;22.20;76.70
19088;DHT22;9676;50.916;13.352;2023-07-31T07:31:17;22.40;76.40
19088;DHT22;9676;50.916;13.352;2023-07-31T07:34:06;22.60;76.10
19088;DHT22;9676;50.916;13.352;2023-07-31T07:36:56;22.80;76.00
19088;DHT22;9676;50.916;13.352;2023-07-31T07:39:46;22.90;75.90
19088;DHT22;9676;50.916;13.352;2023-07-31T07:42:36;23.10;75.80
19088;DHT22;9676;50.916;13.352;2023-07-31T07:45:25;23.30;75.60
19088;DHT22;9676;50.916;13.352;2023-07-31T07:48:14;23.50;75.00
19088;DHT22;9676;50.916;13.352;2023-07-31T07:51:05;23.60;74.20
19088;DHT22;9676;50.916;13.352;2023-07-31T07:53:54;23.80;73.20
19088;DHT22;9676;50.916;13.352;2023-07-31T07:56:45;23.90;72.00
19088;DHT22;9676;50.916;13.352;2023-07-31T07:59:34;24.00;71.20
19088;DHT22;9676;50.916;13.352;2023-07-31T08:02:23;24.10;70.20
19088;DHT22;9676;50.916;13.352;2023-07-31T08:05:13;24.10;69.40
19088;DHT22;9676;50.916;13.352;2023-07-31T08:08:03;24.10;68.60
19088;DHT22;9676;50.916;13.352;2023-07-31T08:10:52;24.20;68.20
19088;DHT22;9676;50.916;13.352;2023-07-31T08:13:43;24.10;67.70
19088;DHT22;9676;50.916;13.352;2023-07-31T08:16:33;24.10;67.00
19088;DHT22;9676;50.916;13.352;2023-07-31T08:19:22;24.10;66.80
19088;DHT22;9676;50.916;13.352;2023-07-31T08:22:12;24.00;66.30
19088;DHT22;9676;50.916;13.352;2023-07-31T08:25:02;23.90;66.30
19088;DHT22;9676;50.916;13.352;2023-07-31T08:27:52;23.90;66.50
19088;DHT22;9676;50.916;13.352;2023-07-31T08:30:43;23.90;66.20
19088;DHT22;9676;50.916;13.352;2023-07-31T08:33:32;23.90;65.60
19088;DHT22;9676;50.916;13.352;2023-07-31T08:36:22;23.80;65.20
19088;DHT22;9676;50.916;13.352;2023-07-31T08:39:12;23.70;64.80
19088;DHT22;9676;50.916;13.352;2023-07-31T08:42:02;23.60;64.70
19088;DHT22;9676;50.916;13.352;2023-07-31T08:44:52;23.60;64.60
19088;DHT22;9676;50.916;13.352;2023-07-31T08:47:45;23.50;64.50
19088;DHT22;9676;50.916;13.352;2023-07-31T08:50:35;23.40;64.40
19088;DHT22;9676;50.916;13.352;2023-07-31T08:53:25;23.30;64.10
19088;DHT22;9676;50.916;13.352;2023-07-31T08:56:15;23.20;64.00
19088;DHT22;9676;50.916;13.352;2023-07-31T08:59:05;23.10;64.20
19088;DHT22;9676;50.916;13.352;2023-07-31T09:01:55;23.10;64.40
19088;DHT22;9676;50.916;13.352;2023-07-31T09:04:48;23.00;64.20
19088;DHT22;9676;50.916;13.352;2023-07-31T09:07:38;23.00;64.90
19088;DHT22;9676;50.916;13.352;2023-07-31T09:10:28;23.00;64.40
19088;DHT22;9676;50.916;13.352;2023-07-31T09:13:17;22.90;64.50
19088;DHT22;9676;50.916;13.352;2023-07-31T09:16:08;22.90;64.60
19088;DHT22;9676;50.916;13.352;2023-07-31T09:18:59;22.90;64.60
19088;DHT22;9676;50.916;13.352;2023-07-31T09:21:51;22.90;64.70
19088;DHT22;9676;50.916;13.352;2023-07-31T09:24:40;22.90;64.90
19088;DHT22;9676;50.916;13.352;2023-07-31T09:27:46;22.90;65.20
19088;DHT22;9676;50.916;13.352;2023-07-31T09:30:47;23.00;65.50
19088;DHT22;9676;50.916;13.352;2023-07-31T09:33:54;23.00;65.60
19088;DHT22;9676;50.916;13.352;2023-07-31T09:36:45;23.10;65.90
19088;DHT22;9676;50.916;13.352;2023-07-31T09:39:47;23.20;66.10
19088;DHT22;9676;50.916;13.352;2023-07-31T09:42:42;23.40;66.40
19088;DHT22;9676;50.916;13.352;2023-07-31T09:45:34;23.40;65.80
19088;DHT22;9676;50.916;13.352;2023-07-31T09:48:29;23.50;66.00
19088;DHT22;9676;50.916;13.352;2023-07-31T09:51:26;23.60;66.00
19088;DHT22;9676;50.916;13.352;2023-07-31T09:54:16;23.70;65.50
19088;DHT22;9676;50.916;13.352;2023-07-31T09:57:09;23.80;65.20
19088;DHT22;9676;50.916;13.352;2023-07-31T10:00:03;23.80;64.50
19088;DHT22;9676;50.916;13.352;2023-07-31T10:03:13;23.80;64.40
19088;DHT22;9676;50.916;13.352;2023-07-31T10:06:05;23.90;64.50
19088;DHT22;9676;50.916;13.352;2023-07-31T10:08:56;23.90;64.30
19088;DHT22;9676;50.916;13.352;2023-07-31T10:11:47;23.90;64.50
19088;DHT22;9676;50.916;13.352;2023-07-31T10:14:42;24.00;64.80
19088;DHT22;9676;50.916;13.352;2023-07-31T10:17:33;24.10;64.80
19088;DHT22;9676;50.916;13.352;2023-07-31T10:20:24;24.20;64.60
19088;DHT22;9676;50.916;13.352;2023-07-31T10:23:14;24.30;64.60
19088;DHT22;9676;50.916;13.352;2023-07-31T10:26:05;24.40;64.70
19088;DHT22;9676;50.916;13.352;2023-07-31T10:28:58;24.40;64.70
19088;DHT22;9676;50.916;13.352;2023-07-31T10:31:50;24.60;64.60
19088;DHT22;9676;50.916;13.352;2023-07-31T10:34:41;24.60;64.40
19088;DHT22;9676;50.916;13.352;2023-07-31T10:37:38;24.70;64.50
19088;DHT22;9676;50.916;13.352;2023-07-31T10:40:28;24.90;64.50
19088;DHT22;9676;50.916;13.352;2023-07-31T10:43:24;25.10;66.10
19088;DHT22;9676;50.916;13.352;2023-07-31T10:46:15;25.40;65.80
19088;DHT22;9676;50.916;13.352;2023-07-31T10:49:06;25.60;65.00
19088;DHT22;9676;50.916;13.352;2023-07-31T10:51:56;25.80;64.00
19088;DHT22;9676;50.916;13.352;2023-07-31T10:54:46;25.90;63.50
19088;DHT22;9676;50.916;13.352;2023-07-31T10:57:35;26.00;62.40
19088;DHT22;9676;50.916;13.352;2023-07-31T11:00:27;26.10;62.10
19088;DHT22;9676;50.916;13.352;2023-07-31T11:03:19;26.00;61.80
19088;DHT22;9676;50.916;13.352;2023-07-31T11:06:12;26.00;61.40
19088;DHT22;9676;50.916;13.352;2023-07-31T11:09:05;26.00;61.60
19088;DHT22;9676;50.916;13.352;2023-07-31T11:11:55;25.90;62.20
19088;DHT22;9676;50.916;13.352;2023-07-31T11:14:53;25.90;62.50
19088;DHT22;9676;50.916;13.352;2023-07-31T11:17:43;26.00;62.90
19088;DHT22;9676;50.916;13.352;2023-07-31T11:20:34;26.10;65.10
19088;DHT22;9676;50.916;13.352;2023-07-31T11:23:26;26.40;66.00
19088;DHT22;9676;50.916;13.352;2023-07-31T11:26:15;26.80;65.60
19088;DHT22;9676;50.916;13.352;2023-07-31T11:29:11;27.10;64.90
19088;DHT22;9676;50.916;13.352;2023-07-31T11:32:02;27.40;63.70
19088;DHT22;9676;50.916;13.352;2023-07-31T11:34:52;27.70;63.40
19088;DHT22;9676;50.916;13.352;2023-07-31T11:37:43;27.90;62.40
19088;DHT22;9676;50.916;13.352;2023-07-31T11:40:41;28.10;61.40
19088;DHT22;9676;50.916;13.352;2023-07-31T11:43:31;28.30;60.00
19088;DHT22;9676;50.916;13.352;2023-07-31T11:46:21;28.30;59.90
19088;DHT22;9676;50.916;13.352;2023-07-31T11:49:11;28.40;59.40
19088;DHT22;9676;50.916;13.352;2023-07-31T11:52:00;28.40;58.30
19088;DHT22;9676;50.916;13.352;2023-07-31T11:54:50;28.40;57.90
19088;DHT22;9676;50.916;13.352;2023-07-31T11:57:43;28.40;57.90
19088;DHT22;9676;50.916;13.352;2023-07-31T12:00:34;28.40;57.70
19088;DHT22;9676;50.916;13.352;2023-07-31T12:03:24;28.40;57.40
19088;DHT22;9676;50.916;13.352;2023-07-31T12:06:14;28.40;57.30
19088;DHT22;9676;50.916;13.352;2023-07-31T12:09:04;28.40;57.50
19088;DHT22;9676;50.916;13.352;2023-07-31T12:11:54;28.50;57.30
19088;DHT22;9676;50.916;13.352;2023-07-31T12:14:45;28.50;57.10
19088;DHT22;9676;50.916;13.352;2023-07-31T12:17:34;28.60;56.30
19088;DHT22;9676;50.916;13.352;2023-07-31T12:20:24;28.60;56.00
19088;DHT22;9676;50.916;13.352;2023-07-31T12:23:14;28.60;55.90
19088;DHT22;9676;50.916;13.352;2023-07-31T12:26:05;28.50;55.20
19088;DHT22;9676;50.916;13.352;2023-07-31T12:28:55;28.50;54.90
19088;DHT22;9676;50.916;13.352;2023-07-31T12:31:46;28.50;55.30
19088;DHT22;9676;50.916;13.352;2023-07-31T12:34:42;28.50;55.10
19088;DHT22;9676;50.916;13.352;2023-07-31T12:37:32;28.50;54.80
19088;DHT22;9676;50.916;13.352;2023-07-31T12:40:22;28.60;55.80
19088;DHT22;9676;50.916;13.352;2023-07-31T12:43:19;28.60;54.90
19088;DHT22;9676;50.916;13.352;2023-07-31T12:46:09;28.60;55.00
19088;DHT22;9676;50.916;13.352;2023-07-31T12:49:00;28.70;54.90
19088;DHT22;9676;50.916;13.352;2023-07-31T12:51:50;28.70;54.80
19088;DHT22;9676;50.916;13.352;2023-07-31T12:54:39;28.80;54.80
19088;DHT22;9676;50.916;13.352;2023-07-31T12:57:29;28.90;54.60
19088;DHT22;9676;50.916;13.352;2023-07-31T13:00:19;29.00;54.40
19088;DHT22;9676;50.916;13.352;2023-07-31T13:03:08;29.00;54.10
19088;DHT22;9676;50.916;13.352;2023-07-31T13:06:00;29.00;53.20
19088;DHT22;9676;50.916;13.352;2023-07-31T13:08:49;29.00;52.90
19088;DHT22;9676;50.916;13.352;2023-07-31T13:11:39;28.90;52.90
19088;DHT22;9676;50.916;13.352;2023-07-31T13:14:28;28.80;52.50
19088;DHT22;9676;50.916;13.352;2023-07-31T13:17:18;28.80;52.10
19088;DHT22;9676;50.916;13.352;2023-07-31T13:20:08;28.60;52.10
19088;DHT22;9676;50.916;13.352;2023-07-31T13:23:00;28.60;52.10
19088;DHT22;9676;50.916;13.352;2023-07-31T13:25:49;28.50;51.90
19088;DHT22;9676;50.916;13.352;2023-07-31T13:28:39;28.40;52.20
19088;DHT22;9676;50.916;13.352;2023-07-31T13:31:28;28.40;52.70
19088;DHT22;9676;50.916;13.352;2023-07-31T13:34:18;28.40;52.90
19088;DHT22;9676;50.916;13.352;2023-07-31T13:37:07;28.50;52.60
19088;DHT22;9676;50.916;13.352;2023-07-31T13:39:58;28.50;52.70
19088;DHT22;9676;50.916;13.352;2023-07-31T13:42:48;28.60;52.40
19088;DHT22;9676;50.916;13.352;2023-07-31T13:45:37;28.50;52.00
19088;DHT22;9676;50.916;13.352;2023-07-31T13:48:26;28.50;51.70
19088;DHT22;9676;50.916;13.352;2023-07-31T13:51:16;28.40;51.70
19088;DHT22;9676;50.916;13.352;2023-07-31T13:54:05;28.40;52.00
19088;DHT22;9676;50.916;13.352;2023-07-31T13:56:57;28.40;52.10
19088;DHT22;9676;50.916;13.352;2023-07-31T13:59:46;28.40;52.00
19088;DHT22;9676;50.916;13.352;2023-07-31T14:02:35;28.40;52.20
19088;DHT22;9676;50.916;13.352;2023-07-31T14:05:25;28.40;52.00
19088;DHT22;9676;50.916;13.352;2023-07-31T14:08:14;28.40;51.90
19088;DHT22;9676;50.916;13.352;2023-07-31T14:11:04;28.40;51.60
19088;DHT22;9676;50.916;13.352;2023-07-31T14:13:55;28.30;51.60
19088;DHT22;9676;50.916;13.352;2023-07-31T14:16:45;28.30;51.60
19088;DHT22;9676;50.916;13.352;2023-07-31T14:19:34;28.30;51.70
19088;DHT22;9676;50.916;13.352;2023-07-31T14:22:28;28.20;51.60
19088;DHT22;9676;50.916;13.352;2023-07-31T14:25:17;28.30;51.80
19088;DHT22;9676;50.916;13.352;2023-07-31T14:28:07;28.30;51.90
19088;DHT22;9676;50.916;13.352;2023-07-31T14:30:58;28.30;51.80
19088;DHT22;9676;50.916;13.352;2023-07-31T14:33:48;28.30;51.50
19088;DHT22;9676;50.916;13.352;2023-07-31T14:36:37;28.20;51.20
19088;DHT22;9676;50.916;13.352;2023-07-31T14:39:27;28.20;51.00
19088;DHT22;9676;50.916;13.352;2023-07-31T14:42:16;28.10;51.10
19088;DHT22;9676;50.916;13.352;2023-07-31T14:45:08;28.00;51.00
19088;DHT22;9676;50.916;13.352;2023-07-31T14:47:59;27.90;51.20
19088;DHT22;9676;50.916;13.352;2023-07-31T14:50:49;27.90;51.40
19088;DHT22;9676;50.916;13.352;2023-07-31T14:53:38;27.90;51.70
19088;DHT22;9676;50.916;13.352;2023-07-31T14:56:28;27.90;51.70
19088;DHT22;9676;50.916;13.352;2023-07-31T14:59:17;27.90;51.60
19088;DHT22;9676;50.916;13.352;2023-07-31T15:02:08;27.90;51.40
19088;DHT22;9676;50.916;13.352;2023-07-31T15:05:00;27.90;51.20
19088;DHT22;9676;50.916;13.352;2023-07-31T15:07:49;27.80;51.00
19088;DHT22;9676;50.916;13.352;2023-07-31T15:10:40;27.80;51.00
19088;DHT22;9676;50.916;13.352;2023-07-31T15:13:29;27.70;50.90
19088;DHT22;9676;50.916;13.352;2023-07-31T15:16:19;27.60;50.80
19088;DHT22;9676;50.916;13.352;2023-07-31T15:19:09;27.50;50.80
19088;DHT22;9676;50.916;13.352;2023-07-31T15:22:00;27.30;50.80
19088;DHT22;9676;50.916;13.352;2023-07-31T15:24:50;27.20;50.80
19088;DHT22;9676;50.916;13.352;2023-07-31T15:27:39;27.10;50.80
19088;DHT22;9676;50.916;13.352;2023-07-31T15:30:29;27.00;50.90
19088;DHT22;9676;50.916;13.352;2023-07-31T15:33:19;27.00;51.10
19088;DHT22;9676;50.916;13.352;2023-07-31T15:36:09;26.90;51.00
19088;DHT22;9676;50.916;13.352;2023-07-31T15:39:00;26.90;50.80
19088;DHT22;9676;50.916;13.352;2023-07-31T15:41:50;26.80;50.70
19088;DHT22;9676;50.916;13.352;2023-07-31T15:44:39;26.70;50.70
19088;DHT22;9676;50.916;13.352;2023-07-31T15:47:28;26.60;50.90
19088;DHT22;9676;50.916;13.352;2023-07-31T15:50:18;26.60;51.10
19088;DHT22;9676;50.916;13.352;2023-07-31T15:53:07;26.50;51.10
19088;DHT22;9676;50.916;13.352;2023-07-31T15:55:58;26.50;51.10
19088;DHT22;9676;50.916;13.352;2023-07-31T15:58:47;26.40;51.00
19088;DHT22;9676;50.916;13.352;2023-07-31T16:01:38;26.40;50.90
19088;DHT22;9676;50.916;13.352;2023-07-31T16:04:27;26.30;50.90
19088;DHT22;9676;50.916;13.352;2023-07-31T16:07:17;26.20;51.00
19088;DHT22;9676;50.916;13.352;2023-07-31T16:10:08;26.10;51.00
19088;DHT22;9676;50.916;13.352;2023-07-31T16:12:59;26.10;51.20
19088;DHT22;9676;50.916;13.352;2023-07-31T16:15:48;26.10;51.40
19088;DHT22;9676;50.916;13.352;2023-07-31T16:18:38;26.10;51.60
19088;DHT22;9676;50.916;13.352;2023-07-31T16:21:28;26.10;51.70
19088;DHT22;9676;50.916;13.352;2023-07-31T16:24:17;26.10;51.70
19088;DHT22;9676;50.916;13.352;2023-07-31T16:27:07;26.10;51.60
19088;DHT22;9676;50.916;13.352;2023-07-31T16:29:58;26.10;51.50
19088;DHT22;9676;50.916;13.352;2023-07-31T16:32:48;26.10;51.50
19088;DHT22;9676;50.916;13.352;2023-07-31T16:35:37;26.10;51.30
19088;DHT22;9676;50.916;13.352;2023-07-31T16:38:27;26.10;51.30
19088;DHT22;9676;50.916;13.352;2023-07-31T16:41:16;26.10;51.30
19088;DHT22;9676;50.916;13.352;2023-07-31T16:44:06;26.10;51.20
19088;DHT22;9676;50.916;13.352;2023-07-31T16:46:57;26.00;51.10
19088;DHT22;9676;50.916;13.352;2023-07-31T16:49:46;26.00;51.10
19088;DHT22;9676;50.916;13.352;2023-07-31T16:52:35;26.00;51.20
19088;DHT22;9676;50.916;13.352;2023-07-31T16:55:25;25.90;51.20
19088;DHT22;9676;50.916;13.352;2023-07-31T16:58:16;25.80;51.10
19088;DHT22;9676;50.916;13.352;2023-07-31T17:01:06;25.80;51.20
19088;DHT22;9676;50.916;13.352;2023-07-31T17:03:57;25.70;51.20
19088;DHT22;9676;50.916;13.352;2023-07-31T17:06:47;25.70;51.30
19088;DHT22;9676;50.916;13.352;2023-07-31T17:09:37;25.60;51.30
19088;DHT22;9676;50.916;13.352;2023-07-31T17:12:26;25.60;51.40
19088;DHT22;9676;50.916;13.352;2023-07-31T17:15:15;25.60;51.50
19088;DHT22;9676;50.916;13.352;2023-07-31T17:18:05;25.60;51.50
19088;DHT22;9676;50.916;13.352;2023-07-31T17:20:57;25.50;51.60
19088;DHT22;9676;50.916;13.352;2023-07-31T17:23:47;25.50;51.70
19088;DHT22;9676;50.916;13.352;2023-07-31T17:26:36;25.50;51.80
19088;DHT22;9676;50.916;13.352;2023-07-31T17:29:27;25.50;51.80
19088;DHT22;9676;50.916;13.352;2023-07-31T17:32:17;25.50;51.90
19088;DHT22;9676;50.916;13.352;2023-07-31T17:35:11;25.50;51.90
19088;DHT22;9676;50.916;13.352;2023-07-31T17:38:02;25.50;52.00
19088;DHT22;9676;50.916;13.352;2023-07-31T17:40:51;25.40;51.90
19088;DHT22;9676;50.916;13.352;2023-07-31T17:43:41;25.40;51.90
19088;DHT22;9676;50.916;13.352;2023-07-31T17:46:31;25.40;51.90
19088;DHT22;9676;50.916;13.352;2023-07-31T17:49:20;25.30;51.90
19088;DHT22;9676;50.916;13.352;2023-07-31T17:52:11;25.30;52.00
19088;DHT22;9676;50.916;13.352;2023-07-31T17:55:02;25.20;52.00
19088;DHT22;9676;50.916;13.352;2023-07-31T17:57:51;25.20;52.10